Accueil
METAR-TAF:

METAR-TAF

Aéroports :

Friedrichshafen, Allemagne

Aéroport de Friedrichshafen

latitude: 47-40N, longitude: 009-31E, altitude: 416 m

Observation

Le bulletin a été fait il y a 16 minutes, à 19:20 UTC
Vent 7 kt de nord/nord-est
Température 19°C
Humidité 52%
Pression 1022 hPa
Visibilité 10 km ou plus
pas de nuages en-dessous de 1500 mètres et pas de cumulonimbus.

METAR: EDNY 241920Z 02007KT CAVOK 19/09 Q1022

Heure: 21:36 (19:36 UTC)

Prévision

Le bulletin a été fait il y a 2 heures et 36 minutes, à 17:00 UTC
Prévision valable du 24 à 18 UTC au 25 à 18 UTC
Vent 3 kt de direction variable
Visibilité 10 km ou plus
Nuages épars à une hauteur de 4000 ft
Evoluant progressivement
du 25 à 06 UTC au 25 à 08 UTC
Vent 5 kt de nord-est
Temporairement
du 25 à 10 UTC au 25 à 16 UTC
Vent 5 kt de ouest/sud-ouest

TAF: EDNY 241700Z 2418/2518 VRB03KT 9999 SCT040 BECMG 2506/2508 04005KT TEMPO 2510/2516 24005KT

Observations et prévisions météorologiques de plus de 4000 aéroports (messages METAR et TAF).

Les stations disponibles sont représentées par des disques jaunes et rouges sur la carte.

Passer la souris dessus pour voir le nom de la station.

Cliquer dessus pour voir les observations et prévisions météorologiques.

Pour changer de carte: cliquez sur les boutons verts avec une croix noire pour zoomer, sur le bouton vert avec un tiret pour effectuer un zoom arrière, ou sur les flèches vertes pour les cartes adjacentes.


METAR-TAF: